Time;durP1;ratioP1;P1;durP2;ratioP2;P2;SDS_P1;SDS_P2;PMS_P1;PMS_P2;Temp;Humidity;BMP_temperature;BMP_pressure;BME280_temperature;BME280_humidity;BME280_pressure;Samples;Min_cycle;Max_cycle;Signal;HPM_P1;HPM_P2
2021/04/15 00:01:44;;;;;;;4.15;1.45;;;;;;;1.86;65.97;102032.28;4982866;28;20050;-68
2021/04/15 00:04:11;;;;;;;5.15;1.30;;;;;;;1.86;65.88;102034.00;4967176;28;20058;-67
2021/04/15 00:06:39;;;;;;;4.72;1.42;;;;;;;1.81;65.80;102028.81;4987982;28;20579;-66
2021/04/15 00:09:15;;;;;;;4.53;1.50;;;;;;;1.79;66.63;102025.34;4979348;28;20141;-69
2021/04/15 00:11:42;;;;;;;3.05;1.50;;;;;;;1.73;66.53;102028.81;4969289;28;20137;-65
2021/04/15 00:14:11;;;;;;;2.58;1.30;;;;;;;1.79;65.89;102030.53;4969817;28;20125;-66
2021/04/15 00:16:38;;;;;;;3.05;1.35;;;;;;;1.80;66.40;102026.19;4982398;28;20055;-70
2021/04/15 00:19:07;;;;;;;3.22;1.45;;;;;;;1.77;66.60;102029.69;4982396;28;20083;-67
2021/04/15 00:21:34;;;;;;;7.10;1.40;;;;;;;1.72;66.76;102027.09;4980811;28;20133;-66
2021/04/15 00:24:00;;;;;;;2.03;1.45;;;;;;;1.65;67.38;102022.75;4976478;28;20077;-68
2021/04/15 00:26:28;;;;;;;1.92;1.23;;;;;;;1.63;66.90;102019.31;4969617;28;20051;-67
2021/04/15 00:28:56;;;;;;;3.67;1.55;;;;;;;1.68;66.88;102027.94;4985274;28;20228;-66
2021/04/15 00:31:24;;;;;;;4.15;1.48;;;;;;;1.69;66.90;102028.81;4981538;28;20157;-67
2021/04/15 00:33:51;;;;;;;5.90;1.23;;;;;;;1.60;67.43;102023.63;4957977;28;20379;-67
2021/04/15 00:36:20;;;;;;;3.47;1.48;;;;;;;1.66;66.85;102026.22;4968689;28;20070;-67
2021/04/15 00:38:48;;;;;;;3.83;1.30;;;;;;;1.72;66.95;102024.50;4966002;28;20386;-67
2021/04/15 00:41:15;;;;;;;3.90;1.55;;;;;;;1.70;67.26;102022.75;4967258;28;20077;-66
2021/04/15 00:43:44;;;;;;;4.80;1.30;;;;;;;1.71;66.79;102027.97;4965573;28;20057;-66
2021/04/15 00:46:25;;;;;;;5.20;2.30;;;;;;;1.66;67.00;102021.88;4956841;28;20132;-67
2021/04/15 00:48:52;;;;;;;3.95;1.50;;;;;;;1.68;66.89;102027.09;4982815;28;20477;-66
2021/04/15 00:51:38;;;;;;;2.00;1.00;;;;;;;1.73;66.81;102021.03;4964856;28;20145;-66
2021/04/15 00:54:08;;;;;;;3.05;1.48;;;;;;;1.72;66.64;102024.50;4979032;28;20043;-66
2021/04/15 00:56:35;;;;;;;4.07;1.48;;;;;;;1.65;67.24;102020.16;4948267;28;20057;-68
2021/04/15 00:59:03;;;;;;;2.95;1.27;;;;;;;1.65;67.49;102020.16;4962384;28;20050;-68
2021/04/15 01:01:30;;;;;;;3.08;1.35;;;;;;;1.70;67.83;102020.16;4979226;23;20137;-66
2021/04/15 01:07:45;;;;;;;5.15;1.70;;;;;;;1.59;68.35;102017.56;4981887;28;20134;-66
2021/04/15 01:10:12;;;;;;;3.58;1.30;;;;;;;1.68;67.79;102017.56;4983916;28;20077;-66
2021/04/15 01:12:52;;;;;;;3.40;1.40;;;;;;;1.61;68.40;102015.81;4944991;28;20060;-68
2021/04/15 01:15:45;;;;;;;5.00;1.75;;;;;;;1.57;69.01;102010.63;4970641;28;20092;-70
2021/04/15 01:18:32;;;;;;;3.95;1.40;;;;;;;1.51;69.16;102014.97;4967720;28;20067;-68
2021/04/15 01:21:39;;;;;;;4.63;1.52;;;;;;;1.49;69.55;102010.66;4957366;28;20509;-68
2021/04/15 01:24:10;;;;;;;4.05;1.50;;;;;;;1.43;69.38;102000.25;4955986;28;20051;-68
2021/04/15 01:26:52;;;;;;;3.22;1.55;;;;;;;1.39;69.82;102004.56;4951500;28;20078;-66
2021/04/15 01:29:24;;;;;;;3.95;1.75;;;;;;;1.27;70.22;101999.38;4951475;28;20055;-67
2021/04/15 01:32:12;;;;;;;3.13;1.63;;;;;;;1.30;70.45;102001.94;4965936;28;20123;-68
2021/04/15 01:34:43;;;;;;;4.15;1.67;;;;;;;1.31;70.71;101995.94;4944899;28;20559;-68
2021/04/15 01:37:19;;;;;;;4.43;2.08;;;;;;;1.31;70.67;102002.84;4943197;28;20065;-68
2021/04/15 01:39:50;;;;;;;7.60;2.17;;;;;;;1.17;71.58;102006.28;4952582;28;20193;-68
2021/04/15 01:42:21;;;;;;;4.43;1.92;;;;;;;1.21;71.37;102001.94;4939025;28;20050;-69
2021/04/15 01:44:50;;;;;;;8.65;1.75;;;;;;;1.25;71.40;102003.69;4961146;28;20054;-68
2021/04/15 01:47:21;;;;;;;6.38;1.80;;;;;;;1.17;72.16;102001.09;4982386;28;20105;-68
2021/04/15 01:49:53;;;;;;;3.28;1.85;;;;;;;1.27;71.85;101997.63;4962299;28;20118;-68
2021/04/15 01:52:20;;;;;;;4.70;1.83;;;;;;;1.24;71.74;101997.63;4948330;28;20517;-68
2021/04/15 01:55:03;;;;;;;2.85;1.42;;;;;;;1.11;72.51;102006.25;4953148;28;20054;-68
2021/04/15 01:57:34;;;;;;;2.13;1.48;;;;;;;1.08;72.40;102003.66;4942903;28;20104;-69
2021/04/15 02:00:08;;;;;;;4.57;1.98;;;;;;;1.01;72.89;101996.72;4950629;28;20047;-69
2021/04/15 02:02:41;;;;;;;2.65;1.52;;;;;;;1.01;72.94;102005.38;4955816;28;20056;-68
2021/04/15 02:05:14;;;;;;;4.28;1.73;;;;;;;0.99;73.12;101998.44;4972195;28;20077;-67
2021/04/15 02:07:44;;;;;;;4.97;1.65;;;;;;;0.98;72.89;102004.47;4970997;28;20059;-68
2021/04/15 02:10:13;;;;;;;3.75;1.85;;;;;;;1.00;72.75;102005.38;4937740;28;20059;-69
2021/04/15 02:12:43;;;;;;;7.70;1.70;;;;;;;1.04;72.01;102001.94;4939978;28;20074;-67
2021/04/15 02:15:22;;;;;;;3.40;1.15;;;;;;;0.91;72.79;102005.34;4951011;28;20543;-67
2021/04/15 02:17:51;;;;;;;2.78;1.20;;;;;;;0.94;72.49;102001.00;4970348;28;20058;-68
2021/04/15 02:20:21;;;;;;;3.58;2.00;;;;;;;0.79;73.15;101998.38;4956645;28;20051;-68
2021/04/15 02:22:56;;;;;;;4.72;1.52;;;;;;;0.77;73.52;102000.13;4954597;28;20086;-68
2021/04/15 02:25:31;;;;;;;2.97;1.45;;;;;;;0.74;73.45;101993.19;4960011;28;20081;-67
2021/04/15 02:28:09;;;;;;;2.65;1.17;;;;;;;0.73;74.21;102000.97;4953567;28;20047;-68
2021/04/15 02:30:43;;;;;;;3.05;1.70;;;;;;;0.77;74.05;102000.13;4962715;28;20071;-67
2021/04/15 02:33:24;;;;;;;8.30;2.33;;;;;;;0.84;74.00;102004.44;4979803;28;20661;-68
2021/04/15 02:35:54;;;;;;;4.40;1.80;;;;;;;0.76;74.59;102001.81;4975682;28;20059;-66
2021/04/15 02:38:24;;;;;;;4.90;1.50;;;;;;;0.75;74.47;102007.00;4942662;28;20047;-68
2021/04/15 02:40:56;;;;;;;5.85;1.95;;;;;;;0.74;75.22;102000.09;4955260;28;20082;-68
2021/04/15 02:43:39;;;;;;;6.72;2.05;;;;;;;0.67;75.42;102008.69;4957615;28;20050;-68
2021/04/15 02:46:10;;;;;;;7.40;2.60;;;;;;;0.67;76.32;101999.19;4949389;28;20509;-66
2021/04/15 02:48:38;;;;;;;9.32;2.60;;;;;;;0.65;76.50;102000.94;4975608;28;20046;-69
2021/04/15 02:51:08;;;;;;;4.85;2.30;;;;;;;0.63;77.17;102002.66;4968837;28;20077;-68
2021/04/15 02:53:41;;;;;;;4.35;1.98;;;;;;;0.59;77.22;102006.09;4941679;28;20127;-66
2021/04/15 02:56:27;;;;;;;7.15;2.35;;;;;;;0.55;78.07;102004.34;4945592;29;20039;-68
2021/04/15 02:59:03;;;;;;;7.28;2.35;;;;;;;0.55;78.52;102003.50;4953587;28;21334;-68
2021/04/15 03:01:35;;;;;;;6.68;2.40;;;;;;;0.50;78.99;102006.91;4965179;28;20135;-68
2021/04/15 03:04:03;;;;;;;5.45;2.60;;;;;;;0.52;78.98;102001.72;4965202;28;20147;-66
2021/04/15 03:06:31;;;;;;;8.05;2.95;;;;;;;0.50;79.57;102000.88;4958236;28;20073;-68
2021/04/15 03:09:05;;;;;;;10.70;3.38;;;;;;;0.45;79.38;101994.78;4948148;28;20055;-67
2021/04/15 03:11:42;;;;;;;6.32;3.10;;;;;;;0.45;80.17;102000.84;4951015;28;20051;-67
2021/04/15 03:14:11;;;;;;;8.70;2.53;;;;;;;0.40;80.69;102004.25;4948969;28;20541;-67
2021/04/15 03:16:40;;;;;;;8.18;3.33;;;;;;;0.47;80.54;102003.44;4960816;28;20093;-68
2021/04/15 03:19:16;;;;;;;5.53;3.30;;;;;;;0.47;80.77;101999.13;4954658;28;20169;-70
2021/04/15 03:21:48;;;;;;;6.40;3.28;;;;;;;0.39;81.45;102002.53;4948040;28;20103;-67
2021/04/15 03:24:20;;;;;;;7.57;2.97;;;;;;;0.39;81.34;102005.13;4954846;28;20551;-67
2021/04/15 03:26:48;;;;;;;8.73;2.83;;;;;;;0.44;81.84;102012.06;4979176;28;20672;-68
2021/04/15 03:29:28;;;;;;;9.55;3.20;;;;;;;0.51;80.67;102010.38;4947290;28;20061;-67
2021/04/15 03:32:20;;;;;;;6.80;3.17;;;;;;;0.34;82.07;102005.09;4963156;28;20066;-68
2021/04/15 03:34:57;;;;;;;10.80;3.20;;;;;;;0.29;82.33;102009.41;4964160;28;20051;-67
2021/04/15 03:37:30;;;;;;;8.18;3.33;;;;;;;0.24;82.71;102003.31;4937703;28;20082;-67
2021/04/15 03:39:58;;;;;;;8.73;3.58;;;;;;;0.24;82.94;102001.59;4942096;28;20419;-68
2021/04/15 03:42:28;;;;;;;9.00;3.38;;;;;;;0.26;82.99;101993.81;4968322;28;20078;-68
2021/04/15 03:45:01;;;;;;;9.95;3.33;;;;;;;0.34;82.55;102001.66;4957172;28;20057;-68
2021/04/15 03:47:33;;;;;;;6.78;3.25;;;;;;;0.43;82.58;101997.38;4964772;28;20639;-67
2021/04/15 03:50:14;;;;;;;6.50;3.25;;;;;;;0.56;82.12;102007.81;4938480;28;20054;-67
2021/04/15 03:53:04;;;;;;;8.52;3.38;;;;;;;0.61;81.98;102006.97;4958213;28;20137;-69
2021/04/15 03:55:34;;;;;;;8.20;2.92;;;;;;;0.56;81.93;102002.63;4972497;28;20051;-68
2021/04/15 03:58:18;;;;;;;6.47;3.13;;;;;;;0.44;82.50;102008.59;4966481;28;20078;-67
2021/04/15 04:00:52;;;;;;;12.27;3.25;;;;;;;0.40;83.04;102006.84;4953722;28;20062;-68
2021/04/15 04:03:24;;;;;;;9.15;3.33;;;;;;;0.56;82.41;102011.25;4953536;28;20058;-68
2021/04/15 04:06:00;;;;;;;9.63;3.75;;;;;;;0.62;82.11;102011.28;4944447;28;20138;-67
2021/04/15 04:08:42;;;;;;;12.30;3.35;;;;;;;0.40;83.03;102009.44;4966768;28;20081;-69
2021/04/15 04:11:12;;;;;;;8.75;3.28;;;;;;;0.42;83.50;102007.75;4964883;28;20067;-68
2021/04/15 04:13:42;;;;;;;13.32;4.15;;;;;;;0.50;82.84;102008.66;4945929;28;20097;-68
2021/04/15 04:16:22;;;;;;;9.75;3.28;;;;;;;0.42;83.12;102007.75;4936855;28;20137;-68
2021/04/15 04:18:56;;;;;;;10.20;3.30;;;;;;;0.37;83.65;102006.84;4936590;28;20160;-68
2021/04/15 04:21:48;;;;;;;7.30;3.17;;;;;;;0.43;83.33;102012.91;4947841;28;20051;-68
2021/04/15 04:24:23;;;;;;;8.18;3.22;;;;;;;0.36;83.70;102020.63;4959022;28;20078;-68
2021/04/15 04:26:56;;;;;;;7.40;3.05;;;;;;;0.37;84.00;102020.66;4949740;28;20477;-68
2021/04/15 04:29:51;;;;;;;11.82;3.40;;;;;;;0.52;84.14;102024.19;4970553;28;20050;-67
2021/04/15 04:32:21;;;;;;;11.52;3.22;;;;;;;0.61;83.29;102029.41;4959544;28;20047;-68
2021/04/15 04:34:54;;;;;;;8.38;3.28;;;;;;;0.60;83.42;102033.72;4969803;28;20042;-69
2021/04/15 04:37:24;;;;;;;13.48;3.53;;;;;;;0.64;83.67;102027.72;4957366;28;20536;-69
2021/04/15 04:39:51;;;;;;;13.20;4.22;;;;;;;0.68;83.05;102029.47;4955973;28;20075;-69
2021/04/15 04:42:24;;;;;;;9.07;3.30;;;;;;;0.71;83.66;102028.59;4955986;28;20576;-69
2021/04/15 04:44:55;;;;;;;14.88;4.07;;;;;;;0.75;83.38;102032.94;4970176;28;20047;-67
2021/04/15 04:47:27;;;;;;;8.50;3.63;;;;;;;0.88;82.99;102034.72;4970140;28;20065;-69
2021/04/15 04:50:24;;;;;;;10.25;4.32;;;;;;;0.79;82.77;102032.09;4962970;28;20051;-68
2021/04/15 04:53:03;;;;;;;13.07;4.25;;;;;;;0.97;82.10;102036.47;4971008;28;20067;-69
2021/04/15 04:55:44;;;;;;;8.82;3.50;;;;;;;1.04;81.88;102032.16;4932498;28;20347;-67
2021/04/15 04:58:16;;;;;;;11.70;3.45;;;;;;;0.91;82.39;102033.88;4952534;28;20065;-67
2021/04/15 05:00:49;;;;;;;9.60;3.55;;;;;;;1.07;82.32;102040.81;4945732;28;20101;-67
2021/04/15 05:03:18;;;;;;;12.88;4.07;;;;;;;1.12;82.09;102038.22;4960349;28;20490;-69
2021/04/15 05:05:46;;;;;;;9.07;3.70;;;;;;;1.32;81.58;102038.28;4965929;28;20051;-66
2021/04/15 05:08:18;;;;;;;9.68;4.57;;;;;;;1.20;81.91;102041.72;4959752;28;20043;-67
2021/04/15 05:10:45;;;;;;;11.07;4.97;;;;;;;1.26;81.94;102040.03;4949283;28;20046;-68
2021/04/15 05:13:15;;;;;;;9.73;3.53;;;;;;;1.49;81.26;102032.28;4939318;29;20513;-68
2021/04/15 05:15:42;;;;;;;11.23;4.07;;;;;;;1.68;80.57;102042.66;4965882;28;20769;-68
2021/04/15 05:18:13;;;;;;;13.13;3.90;;;;;;;1.80;80.13;102032.25;4953086;28;20047;-68
2021/04/15 05:20:40;;;;;;;9.27;3.67;;;;;;;1.87;79.49;102039.19;4947408;28;20047;-68
2021/04/15 05:23:37;;;;;;;10.77;4.07;;;;;;;1.81;79.67;102041.81;4963712;28;20467;-67
2021/04/15 05:26:16;;;;;;;14.27;5.53;;;;;;;2.06;78.51;102041.78;4958054;28;20051;-69
2021/04/15 05:28:44;;;;;;;13.20;4.22;;;;;;;2.14;78.29;102043.50;4954230;28;20496;-68
2021/04/15 05:31:13;;;;;;;9.48;3.80;;;;;;;2.23;77.98;102034.81;4932312;29;20050;-68
2021/04/15 05:33:40;;;;;;;12.98;3.80;;;;;;;2.33;77.38;102039.13;4955961;28;20093;-68
2021/04/15 05:36:12;;;;;;;9.00;4.53;;;;;;;2.31;77.01;102038.28;4968371;28;20078;-68
2021/04/15 05:39:00;;;;;;;12.88;4.30;;;;;;;2.30;77.42;102033.97;4966455;28;20187;-67
2021/04/15 05:41:42;;;;;;;10.63;3.72;;;;;;;2.58;75.54;102034.75;4948454;28;20070;-67
2021/04/15 05:44:21;;;;;;;6.13;3.53;;;;;;;2.33;76.48;102039.13;4950197;28;20176;-68
2021/04/15 05:46:50;;;;;;;8.60;3.75;;;;;;;2.27;76.77;102039.16;4946374;28;20047;-67
2021/04/15 05:49:22;;;;;;;9.82;3.58;;;;;;;2.33;75.80;102046.91;4948327;28;20058;-67
2021/04/15 05:51:57;;;;;;;8.68;4.25;;;;;;;2.39;74.51;102044.34;4928153;28;20138;-68
2021/04/15 05:54:24;;;;;;;10.10;3.33;;;;;;;2.20;75.95;102047.81;4935703;28;20055;-68
2021/04/15 05:57:00;;;;;;;8.35;3.03;;;;;;;2.28;75.14;102052.13;4954520;28;20186;-69
2021/04/15 05:59:33;;;;;;;4.55;2.70;;;;;;;2.46;74.63;102051.22;4953874;28;20051;-68
2021/04/15 06:02:11;;;;;;;13.13;3.47;;;;;;;2.47;74.45;102042.56;4955014;28;20047;-70
2021/04/15 06:05:07;;;;;;;7.93;3.22;;;;;;;2.86;73.04;102051.09;4958318;28;20047;-66
2021/04/15 06:07:35;;;;;;;12.80;2.97;;;;;;;2.90;72.09;102050.22;4943931;28;20134;-67
2021/04/15 06:10:03;;;;;;;9.52;3.03;;;;;;;2.79;73.00;102057.19;4968520;28;20054;-66
2021/04/15 06:12:46;;;;;;;7.45;2.70;;;;;;;2.61;73.08;102052.94;4937167;28;20410;-68
2021/04/15 06:15:17;;;;;;;11.82;3.20;;;;;;;2.73;72.64;102052.00;4948261;28;20054;-67
2021/04/15 06:18:19;;;;;;;9.25;2.72;;;;;;;2.99;71.66;102051.91;4960386;28;20537;-68
2021/04/15 06:20:51;;;;;;;8.68;2.88;;;;;;;3.26;70.36;102054.38;4955734;28;20532;-67
2021/04/15 06:23:28;;;;;;;7.35;3.75;;;;;;;3.48;69.89;102052.50;4931143;28;20071;-67
2021/04/15 06:25:55;;;;;;;16.75;3.33;;;;;;;3.19;70.50;102054.41;4970177;28;20054;-67
2021/04/15 06:28:42;;;;;;;12.63;3.22;;;;;;;3.32;70.87;102053.44;4952730;28;20131;-67
2021/04/15 06:31:15;;;;;;;7.25;3.22;;;;;;;3.13;70.64;102052.69;4955202;28;20078;-68
2021/04/15 06:33:43;;;;;;;8.35;3.25;;;;;;;3.05;70.64;102063.13;4950606;28;20057;-68
2021/04/15 06:36:26;;;;;;;7.47;3.05;;;;;;;3.46;69.00;102046.41;4945157;29;20139;-68
2021/04/15 06:39:03;;;;;;;10.82;2.58;;;;;;;3.47;69.48;102049.91;4955353;28;20055;-67
2021/04/15 06:41:39;;;;;;;8.00;3.60;;;;;;;3.86;68.39;102050.47;4954492;28;20074;-68
2021/04/15 06:44:24;;;;;;;9.07;4.03;;;;;;;3.97;67.88;102043.44;4940890;28;20552;-70
2021/04/15 06:47:05;;;;;;;8.03;2.70;;;;;;;3.53;68.92;102050.72;4960980;28;20160;-69
2021/04/15 06:49:57;;;;;;;7.15;2.35;;;;;;;4.19;67.39;102054.53;4972740;28;20069;-68
2021/04/15 06:52:49;;;;;;;10.43;3.17;;;;;;;3.73;68.80;102044.50;4971165;28;20039;-68
2021/04/15 06:55:38;;;;;;;7.43;3.20;;;;;;;3.98;67.53;102052.97;4953034;28;20137;-68
2021/04/15 06:58:10;;;;;;;9.98;3.40;;;;;;;4.64;65.81;102047.97;4976828;28;20143;-69
2021/04/15 07:01:14;;;;;;;9.43;2.97;;;;;;;4.95;64.29;102040.59;4953647;28;20146;-68
2021/04/15 07:04:08;;;;;;;11.63;2.83;;;;;;;5.08;63.63;102039.56;4995331;23;20479;-69
2021/04/15 07:06:46;;;;;;;7.45;2.78;;;;;;;5.13;63.35;102034.28;4979064;28;20144;-70
2021/04/15 07:09:50;;;;;;;11.73;4.03;;;;;;;5.43;62.08;102037.34;4996252;28;20679;-69
2021/04/15 07:12:39;;;;;;;5.72;2.28;;;;;;;6.07;60.06;102037.19;4975129;28;20061;-70
2021/04/15 07:16:03;;;;;;;3.70;2.40;;;;;;;5.43;61.87;102037.34;4973933;28;20110;-70
2021/04/15 07:18:57;;;;;;;6.72;2.63;;;;;;;6.11;59.82;102042.34;4951204;28;20134;-70
2021/04/15 07:21:55;;;;;;;7.35;2.05;;;;;;;6.31;59.33;102038.50;4948954;28;20078;-71
2021/04/15 07:24:37;;;;;;;5.55;2.10;;;;;;;6.90;56.66;102030.34;4985154;28;20046;-70
2021/04/15 07:27:23;;;;;;;4.07;1.80;;;;;;;6.48;57.29;102035.53;4956478;28;20050;-70
2021/04/15 07:29:56;;;;;;;;;;;;;;;6.93;56.27;102032.03;4984470;28;20571;-69
2021/04/15 07:32:33;;;;;;;5.07;1.85;;;;;;;7.38;55.70;102040.63;4992669;28;20024;-70
2021/04/15 07:35:28;;;;;;;5.28;1.65;;;;;;;7.41;54.41;102035.31;4979739;28;20575;-69
2021/04/15 07:38:14;;;;;;;3.35;2.00;;;;;;;7.53;53.83;102044.66;4960282;28;20072;-71
2021/04/15 07:41:11;;;;;;;4.22;1.58;;;;;;;8.35;51.03;102028.59;4980503;28;20263;-69
2021/04/15 07:43:56;;;;;;;9.05;2.67;;;;;;;9.84;49.81;102032.88;4980354;28;20051;-71
2021/04/15 07:46:36;;;;;;;6.75;2.65;;;;;;;10.51;45.36;102040.22;4976665;28;20512;-70
2021/04/15 07:49:25;;;;;;;6.55;1.60;;;;;;;10.77;43.89;102040.13;4979947;28;20056;-71
2021/04/15 07:52:09;;;;;;;6.03;1.98;;;;;;;8.72;48.25;102043.34;4972062;28;20716;-70
2021/04/15 07:54:56;;;;;;;4.85;1.42;;;;;;;8.87;47.39;102029.75;4989590;28;20150;-69
2021/04/15 07:57:48;;;;;;;4.25;2.00;;;;;;;8.73;47.69;102040.66;4995146;28;20069;-69
2021/04/15 08:00:16;;;;;;;5.55;1.73;;;;;;;9.24;46.46;102044.44;4997736;28;20057;-71
2021/04/15 08:03:04;;;;;;;3.92;1.35;;;;;;;8.99;47.13;102033.81;5001454;28;20078;-70
2021/04/15 08:05:55;;;;;;;7.18;1.40;;;;;;;8.68;46.15;102044.34;4975691;28;20050;-69
2021/04/15 08:08:39;;;;;;;2.85;1.30;;;;;;;8.46;46.26;102050.16;4976558;28;20133;-71
2021/04/15 08:11:22;;;;;;;5.13;1.42;;;;;;;9.39;45.18;102041.34;4974339;28;20523;-70
2021/04/15 08:14:39;;;;;;;7.03;1.38;;;;;;;9.13;45.34;102048.25;4989587;28;20050;-70
2021/04/15 08:17:27;;;;;;;9.05;1.88;;;;;;;8.63;47.00;102044.47;4976655;28;20410;-69
2021/04/15 08:20:13;;;;;;;3.67;1.20;;;;;;;9.97;43.67;102041.22;5001149;28;20054;-68
2021/04/15 08:22:59;;;;;;;5.05;1.30;;;;;;;7.96;47.82;102044.47;4988906;28;20046;-68
2021/04/15 08:25:31;;;;;;;;;;;;;;;9.06;45.28;102045.88;4980252;28;20034;-69
2021/04/15 08:28:16;;;;;;;3.22;1.17;;;;;;;9.65;44.16;102045.75;4994937;28;21803;-69
2021/04/15 08:30:53;;;;;;;4.97;1.15;;;;;;;8.82;44.43;102045.66;4971682;28;20062;-68
2021/04/15 08:33:23;;;;;;;3.50;1.20;;;;;;;7.90;45.49;102049.88;4956340;28;20112;-69
2021/04/15 08:36:04;;;;;;;2.63;1.40;;;;;;;7.68;46.64;102046.06;4962094;28;20133;-69
2021/04/15 08:38:50;;;;;;;7.22;0.95;;;;;;;7.68;46.46;102056.53;4974732;28;20046;-70
2021/04/15 08:41:36;;;;;;;;;;;;;;;7.72;46.72;102045.09;4988310;28;20073;-69
2021/04/15 08:44:20;;;;;;;5.47;1.20;;;;;;;7.69;45.99;102048.63;4958469;28;19975;-68
2021/04/15 08:47:04;;;;;;;7.28;1.63;;;;;;;7.50;46.46;102042.97;4958881;28;20066;-70
2021/04/15 08:49:40;;;;;;;5.55;1.55;;;;;;;8.04;45.37;102052.16;4969284;28;20077;-70
2021/04/15 08:52:38;;;;;;;3.97;1.45;;;;;;;7.34;45.65;102059.97;4955000;28;20050;-68
2021/04/15 08:55:25;;;;;;;2.90;1.10;;;;;;;7.63;45.07;102040.06;4955121;28;20448;-69
2021/04/15 08:57:58;;;;;;;1.40;0.82;;;;;;;8.51;43.58;102056.19;4956713;28;20049;-68
2021/04/15 09:00:42;;;;;;;2.08;0.95;;;;;;;8.34;43.10;102040.00;4979034;28;20116;-70
2021/04/15 09:03:38;;;;;;;7.72;1.08;;;;;;;8.28;41.20;102041.00;4955948;28;20049;-68
2021/04/15 09:06:22;;;;;;;2.40;0.85;;;;;;;7.74;42.73;102044.13;4969033;28;20571;-70
2021/04/15 09:09:16;;;;;;;5.95;1.05;;;;;;;7.68;42.89;102038.19;4973017;28;20064;-71
2021/04/15 09:12:07;;;;;;;3.17;0.90;;;;;;;8.22;41.82;102027.19;4989397;28;20055;-70
2021/04/15 09:14:49;;;;;;;3.45;1.10;;;;;;;8.09;40.55;102051.13;4993418;28;20054;-71
2021/04/15 09:17:26;;;;;;;4.25;0.82;;;;;;;8.16;39.80;102030.00;4973407;28;20149;-70
2021/04/15 09:20:34;;;;;;;1.55;0.60;;;;;;;8.35;39.11;102026.81;4958904;28;20065;-69
2021/04/15 09:23:13;;;;;;;3.47;0.80;;;;;;;8.27;38.02;102035.81;4978898;28;20053;-70
2021/04/15 09:25:43;;;;;;;2.22;0.60;;;;;;;8.27;37.66;102048.91;4986241;28;20398;-71
2021/04/15 09:28:25;;;;;;;2.20;0.70;;;;;;;8.40;38.17;102021.47;4987099;28;20070;-70
2021/04/15 09:30:59;;;;;;;2.80;0.65;;;;;;;7.99;37.27;102031.28;4979494;28;20456;-70
2021/04/15 09:33:57;;;;;;;0.73;0.60;;;;;;;8.15;36.63;102030.88;4977361;28;20146;-69
2021/04/15 09:36:58;;;;;;;1.70;0.50;;;;;;;8.31;36.98;102026.94;4974971;28;20058;-70
2021/04/15 09:39:45;;;;;;;1.42;0.57;;;;;;;7.94;37.47;102029.69;4957781;28;20505;-70
2021/04/15 09:42:50;;;;;;;1.50;0.63;;;;;;;8.30;37.40;102026.09;4960398;28;20052;-71
2021/04/15 09:45:36;;;;;;;1.65;0.63;;;;;;;8.75;36.85;102030.13;4988876;28;20133;-71
2021/04/15 09:48:12;;;;;;;1.45;0.60;;;;;;;8.55;36.97;102028.91;4992184;28;20053;-72
2021/04/15 09:50:53;;;;;;;1.20;0.60;;;;;;;7.91;37.20;102033.25;4978712;28;20432;-72
2021/04/15 09:53:39;;;;;;;7.25;0.75;;;;;;;8.07;37.42;102034.56;4998109;28;20060;-71
2021/04/15 09:56:15;;;;;;;2.47;0.50;;;;;;;8.16;36.41;102040.50;4994472;28;20050;-72
2021/04/15 09:59:27;;;;;;;4.28;0.68;;;;;;;7.92;36.94;102037.56;4985729;28;20054;-70
2021/04/15 10:02:08;;;;;;;6.20;1.33;;;;;;;7.93;36.70;102051.56;4918475;29;20139;-70
2021/04/15 10:04:35;;;;;;;0.73;0.40;;;;;;;7.90;37.05;102038.53;4976528;28;20144;-71
2021/04/15 10:07:09;;;;;;;0.77;0.40;;;;;;;7.51;36.48;102031.59;4989074;28;20046;-70
2021/04/15 10:09:43;;;;;;;3.70;0.50;;;;;;;7.47;36.58;102036.94;4996033;28;20054;-71
2021/04/15 10:12:29;;;;;;;2.55;1.33;;;;;;;7.58;36.34;102024.47;4976948;28;20245;-70
2021/04/15 10:15:30;;;;;;;1.50;0.50;;;;;;;8.02;35.62;102031.22;4989453;28;20058;-70
2021/04/15 10:18:08;;;;;;;9.27;1.17;;;;;;;7.59;35.05;102031.41;4955325;28;20133;-68
2021/04/15 10:21:16;;;;;;;3.58;0.60;;;;;;;7.07;35.73;102036.09;4989927;28;20054;-70
2021/04/15 10:24:02;;;;;;;4.43;0.60;;;;;;;7.38;36.04;102026.66;4973948;28;20054;-68
2021/04/15 10:27:02;;;;;;;1.13;0.52;;;;;;;7.23;36.43;102038.38;4981219;28;20046;-70
2021/04/15 10:29:47;;;;;;;5.53;0.90;;;;;;;7.05;37.50;102030.00;4986493;28;20074;-71
2021/04/15 10:32:28;;;;;;;8.43;0.55;;;;;;;7.46;37.05;102028.22;4982437;28;20487;-70
2021/04/15 10:35:22;;;;;;;1.02;0.70;;;;;;;7.35;37.07;102032.88;4972316;28;20046;-71
2021/04/15 10:38:19;;;;;;;4.00;0.40;;;;;;;7.39;37.46;102025.78;4972037;28;20091;-71
2021/04/15 10:41:26;;;;;;;2.70;0.70;;;;;;;7.12;38.01;102043.00;4970325;28;20493;-69
2021/04/15 10:43:52;;;;;;;;;;;;;;;7.01;37.73;102033.59;4975603;28;20050;-72
2021/04/15 10:46:25;;;;;;;;;;;;;;;7.25;37.20;102036.56;4989775;28;19971;-70
2021/04/15 10:49:25;;;;;;;1.67;0.52;;;;;;;6.96;38.83;102030.22;4991231;28;19932;-70
2021/04/15 10:52:13;;;;;;;3.25;0.70;;;;;;;7.03;39.04;102023.09;4977880;28;20084;-71
2021/04/15 10:54:41;;;;;;;3.00;0.77;;;;;;;7.33;38.73;102014.53;4987847;28;20058;-70
2021/04/15 10:57:27;;;;;;;4.72;0.60;;;;;;;7.30;38.54;102008.53;4988793;28;20045;-71
2021/04/15 10:59:54;;;;;;;2.70;0.70;;;;;;;7.99;38.16;102010.31;4983733;28;20512;-69
2021/04/15 11:02:32;;;;;;;3.20;0.63;;;;;;;8.34;36.95;102017.25;4974408;28;20141;-72
2021/04/15 11:05:16;;;;;;;2.72;0.55;;;;;;;7.65;38.50;102019.91;4961984;28;20057;-70
2021/04/15 11:07:44;;;;;;;4.50;1.02;;;;;;;7.58;37.78;102003.50;4997543;28;20064;-71
2021/04/15 11:10:23;;;;;;;4.00;0.50;;;;;;;7.20;38.79;101996.53;4985316;28;20689;-71
2021/04/15 11:13:01;;;;;;;1.27;0.43;;;;;;;7.45;39.53;102010.78;4990901;28;20110;-69
2021/04/15 11:15:47;;;;;;;5.07;0.80;;;;;;;7.98;38.21;102005.13;4961618;28;20042;-69
2021/04/15 11:18:22;;;;;;;2.38;0.60;;;;;;;8.32;37.72;101998.03;4973499;28;20062;-70
2021/04/15 11:20:50;;;;;;;3.03;0.60;;;;;;;7.90;39.91;102007.91;4964836;28;20042;-70
2021/04/15 11:23:17;;;;;;;4.32;0.80;;;;;;;7.70;41.13;101997.06;4974926;28;20081;-71
2021/04/15 11:25:47;;;;;;;2.35;0.65;;;;;;;7.39;41.11;102004.84;4979597;28;20054;-71
2021/04/15 11:28:20;;;;;;;1.38;0.50;;;;;;;7.20;40.60;102004.38;4996418;28;20447;-72
2021/04/15 11:30:52;;;;;;;1.30;0.70;;;;;;;7.76;39.65;102004.78;5001803;28;20080;-71
2021/04/15 11:33:48;;;;;;;1.00;0.50;;;;;;;8.48;38.75;102002.91;4990317;28;20050;-71
2021/04/15 11:36:28;;;;;;;5.28;0.80;;;;;;;8.34;39.65;101996.25;4958997;28;20053;-71
2021/04/15 11:39:04;;;;;;;6.40;0.70;;;;;;;7.58;42.06;101993.00;4976343;28;20072;-71
2021/04/15 11:41:54;;;;;;;3.55;0.70;;;;;;;8.19;41.09;102006.28;4979214;28;20133;-69
2021/04/15 11:44:31;;;;;;;5.20;0.70;;;;;;;7.38;43.67;101996.09;4968596;28;20050;-70
2021/04/15 11:47:07;;;;;;;5.53;0.60;;;;;;;7.50;42.85;101997.56;4994928;28;20038;-70
2021/04/15 11:49:37;;;;;;;5.53;0.85;;;;;;;7.73;42.85;101997.00;4959121;28;20043;-71
2021/04/15 11:52:16;;;;;;;4.47;0.70;;;;;;;7.62;43.29;101999.91;4979664;28;20066;-72
2021/04/15 11:54:48;;;;;;;4.75;0.52;;;;;;;7.94;41.92;101996.47;4993076;28;20054;-70
2021/04/15 11:57:18;;;;;;;1.23;0.70;;;;;;;7.79;41.69;101982.00;4992948;28;20620;-69
2021/04/15 11:59:57;;;;;;;3.53;0.70;;;;;;;7.68;42.06;101993.63;4993580;28;20133;-70
2021/04/15 12:02:38;;;;;;;1.20;0.52;;;;;;;7.60;41.39;101973.72;4976533;28;20535;-70
2021/04/15 12:05:14;;;;;;;2.67;0.60;;;;;;;7.50;41.60;101987.94;5002155;28;20129;-71
2021/04/15 12:08:04;;;;;;;3.17;0.73;;;;;;;7.50;41.82;101987.94;4972129;28;20050;-72
2021/04/15 12:10:35;;;;;;;2.20;0.63;;;;;;;7.12;42.54;101988.00;4993436;28;20092;-71
2021/04/15 12:13:05;;;;;;;2.38;0.63;;;;;;;7.04;42.94;101965.47;4973434;28;20048;-70
2021/04/15 12:15:36;;;;;;;2.10;0.70;;;;;;;6.79;43.76;101988.69;4978176;28;20140;-71
2021/04/15 12:18:35;;;;;;;3.75;0.70;;;;;;;7.35;42.55;101976.09;4966833;28;20055;-70
2021/04/15 12:21:15;;;;;;;3.97;0.68;;;;;;;7.10;43.53;101969.69;4995365;28;20124;-71
2021/04/15 12:23:52;;;;;;;3.70;2.42;;;;;;;7.47;43.42;101968.81;4979319;28;20057;-70
2021/04/15 12:26:41;;;;;;;;;;;;;;;7.51;42.24;101988.81;4973994;28;20109;-70
2021/04/15 12:29:41;;;;;;;3.90;0.80;;;;;;;7.01;41.85;101965.53;4978720;28;19933;-71
2021/04/15 12:32:08;;;;;;;5.40;0.77;;;;;;;7.04;43.21;101967.22;4990757;28;20153;-71